Time;durP1;ratioP1;P1;durP2;ratioP2;P2;SDS_P1;SDS_P2;PMS_P1;PMS_P2;Temp;Humidity;BMP_temperature;BMP_pressure;BME280_temperature;BME280_humidity;BME280_pressure;Samples;Min_cycle;Max_cycle;Signal;HPM_P1;HPM_P2
2023/09/02 00:00:54;;;;;;;5.63;2.97;;;19.50;83.80;;;;;;5103739;28;20066;-70
2023/09/02 00:03:20;;;;;;;4.95;3.85;;;19.50;83.80;;;;;;5105972;28;20120;-69
2023/09/02 00:05:48;;;;;;;5.60;4.20;;;19.50;83.80;;;;;;5111886;28;20034;-69
2023/09/02 00:08:14;;;;;;;7.65;4.85;;;19.50;83.80;;;;;;5103246;28;20051;-70
2023/09/02 00:10:40;;;;;;;6.03;4.15;;;19.50;84.40;;;;;;5110569;28;20036;-69
2023/09/02 00:13:05;;;;;;;8.68;4.97;;;19.50;83.90;;;;;;5105817;28;20031;-68
2023/09/02 00:15:31;;;;;;;7.30;4.40;;;19.50;84.00;;;;;;5108300;28;20028;-69
2023/09/02 00:17:57;;;;;;;8.52;5.07;;;19.50;84.00;;;;;;5110205;28;20482;-69
2023/09/02 00:20:28;;;;;;;9.10;5.07;;;19.50;84.10;;;;;;5105838;28;20032;-67
2023/09/02 00:22:54;;;;;;;9.60;5.20;;;19.50;84.10;;;;;;5106504;28;20066;-68
2023/09/02 00:25:22;;;;;;;9.07;4.78;;;19.50;84.20;;;;;;5106868;28;20051;-68
2023/09/02 00:27:48;;;;;;;7.72;4.45;;;19.40;84.10;;;;;;5106002;28;20538;-68
2023/09/02 00:30:15;;;;;;;5.03;3.13;;;19.40;84.20;;;;;;5105738;28;20066;-68
2023/09/02 00:32:40;;;;;;;7.30;4.03;;;19.40;84.20;;;;;;5115649;28;20046;-68
2023/09/02 00:35:06;;;;;;;6.50;3.63;;;19.40;84.20;;;;;;5109877;28;20065;-68
2023/09/02 00:37:32;;;;;;;7.20;3.92;;;19.30;84.10;;;;;;5104192;28;20028;-68
2023/09/02 00:39:58;;;;;;;8.15;4.43;;;19.30;84.10;;;;;;5107834;28;20106;-68
2023/09/02 00:42:27;;;;;;;8.35;4.20;;;19.30;84.10;;;;;;5111851;28;20122;-68
2023/09/02 00:44:53;;;;;;;6.63;3.95;;;19.30;84.10;;;;;;5105909;28;20035;-67
2023/09/02 00:47:19;;;;;;;6.85;4.68;;;19.20;84.00;;;;;;5106651;28;20507;-68
2023/09/02 00:49:45;;;;;;;6.28;3.65;;;19.20;84.00;;;;;;5103683;28;20054;-67
2023/09/02 00:52:10;;;;;;;7.30;4.28;;;19.20;84.10;;;;;;5109526;28;20111;-67
2023/09/02 00:54:36;;;;;;;7.07;4.05;;;19.10;84.00;;;;;;5102740;28;20027;-67
2023/09/02 00:57:02;;;;;;;5.43;3.55;;;19.10;84.00;;;;;;5092282;28;20031;-68
2023/09/02 00:59:28;;;;;;;6.53;3.83;;;19.10;84.00;;;;;;5107548;28;20503;-67
2023/09/02 01:01:56;;;;;;;6.07;3.90;;;19.00;84.00;;;;;;5110867;28;20023;-69
2023/09/02 01:04:22;;;;;;;5.30;3.53;;;19.00;84.00;;;;;;5108629;28;20036;-69
2023/09/02 01:06:47;;;;;;;5.43;3.47;;;19.00;84.00;;;;;;5106924;28;20035;-69
2023/09/02 01:09:14;;;;;;;7.38;3.35;;;19.00;84.00;;;;;;5101970;28;20067;-71
2023/09/02 01:11:39;;;;;;;6.25;3.70;;;19.00;83.90;;;;;;5107733;28;20379;-69
2023/09/02 01:14:05;;;;;;;8.23;3.60;;;18.90;83.70;;;;;;5105828;28;20053;-69
2023/09/02 01:16:31;;;;;;;6.07;3.35;;;18.90;83.70;;;;;;5102178;28;20036;-69
2023/09/02 01:18:58;;;;;;;7.00;3.13;;;18.80;83.60;;;;;;5112459;27;20016;-69
2023/09/02 01:21:44;;;;;;;3.75;2.58;;;18.80;83.60;;;;;;5111900;28;20678;-69
2023/09/02 01:24:32;;;;;;;7.35;3.88;;;18.80;83.60;;;;;;5112813;27;20039;-69
2023/09/02 01:27:51;;;;;;;5.03;3.50;;;18.70;83.60;;;;;;5108214;27;20043;-68
2023/09/02 01:30:26;;;;;;;7.10;3.70;;;18.70;83.60;;;;;;5084740;28;20040;-67
2023/09/02 01:32:54;;;;;;;5.72;3.50;;;18.70;83.70;;;;;;5111414;28;20023;-67
2023/09/02 01:35:27;;;;;;;7.03;3.65;;;18.70;84.00;;;;;;5111658;28;20077;-68
2023/09/02 01:37:56;;;;;;;6.80;3.67;;;18.70;83.70;;;;;;5107950;27;20586;-68
2023/09/02 01:40:26;;;;;;;6.25;3.05;;;18.70;83.70;;;;;;5103321;28;20484;-69
2023/09/02 01:42:56;;;;;;;4.05;2.70;;;18.80;83.70;;;;;;5106163;28;20445;-69
2023/09/02 01:45:24;;;;;;;6.88;3.95;;;18.80;83.60;;;;;;5110462;28;20031;-69
2023/09/02 01:47:51;;;;;;;4.93;3.17;;;18.80;83.60;;;;;;5109127;28;20031;-69
2023/09/02 01:50:20;;;;;;;4.80;3.38;;;18.90;83.80;;;;;;5110023;28;20032;-68
2023/09/02 01:52:47;;;;;;;6.95;3.70;;;18.80;83.80;;;;;;5106577;28;20792;-68
2023/09/02 01:55:14;;;;;;;7.15;4.15;;;18.80;83.90;;;;;;5112328;28;20024;-68
2023/09/02 01:57:40;;;;;;;4.55;3.28;;;18.90;84.00;;;;;;5109757;27;20336;-68
2023/09/02 02:00:06;;;;;;;5.75;3.00;;;18.90;84.00;;;;;;5110174;27;20116;-69
2023/09/02 02:02:32;;;;;;;4.45;2.33;;;18.90;84.00;;;;;;5106736;28;20062;-68
2023/09/02 02:05:02;;;;;;;5.72;3.80;;;18.90;84.00;;;;;;5113088;27;20395;-69
2023/09/02 02:07:33;;;;;;;7.57;3.50;;;19.00;84.00;;;;;;5110698;28;20489;-69
2023/09/02 02:10:03;;;;;;;5.53;2.90;;;19.00;84.00;;;;;;5109657;28;20028;-69
2023/09/02 02:12:30;;;;;;;3.97;2.60;;;19.00;84.10;;;;;;5106662;28;20101;-68
2023/09/02 02:14:55;;;;;;;3.83;2.20;;;19.10;84.00;;;;;;5109034;28;20090;-68
2023/09/02 02:17:21;;;;;;;4.38;2.72;;;19.00;84.00;;;;;;5104006;27;20019;-68
2023/09/02 02:19:47;;;;;;;5.20;3.03;;;19.00;84.00;;;;;;5110593;27;20082;-68
2023/09/02 02:22:13;;;;;;;4.90;3.08;;;19.10;84.10;;;;;;5109566;28;20055;-68
2023/09/02 02:24:39;;;;;;;5.20;3.28;;;19.00;84.10;;;;;;5108380;28;20066;-68
2023/09/02 02:27:05;;;;;;;4.70;3.10;;;19.10;84.20;;;;;;5108748;28;20425;-68
2023/09/02 02:29:30;;;;;;;5.30;3.40;;;19.10;84.20;;;;;;5111960;27;20487;-69
2023/09/02 02:31:56;;;;;;;5.80;3.55;;;19.10;84.20;;;;;;5111663;27;20537;-69
2023/09/02 02:34:23;;;;;;;5.38;3.47;;;19.10;84.30;;;;;;5115897;27;20047;-68
2023/09/02 02:36:49;;;;;;;5.22;3.22;;;19.10;84.30;;;;;;5112191;27;20049;-69
2023/09/02 02:39:15;;;;;;;6.25;3.25;;;19.10;84.30;;;;;;5110691;27;20031;-69
2023/09/02 02:41:41;;;;;;;5.30;2.67;;;19.10;84.30;;;;;;5111070;27;20031;-68
2023/09/02 02:44:06;;;;;;;5.85;3.30;;;19.10;84.30;;;;;;5108456;28;20054;-69
2023/09/02 02:46:32;;;;;;;6.50;4.43;;;19.20;84.30;;;;;;5110973;27;20066;-68
2023/09/02 02:48:58;;;;;;;4.03;2.80;;;19.20;84.30;;;;;;5108258;28;20032;-68
2023/09/02 02:51:24;;;;;;;5.03;3.35;;;19.20;84.30;;;;;;5111487;27;20551;-68
2023/09/02 02:53:51;;;;;;;6.68;3.70;;;19.20;84.60;;;;;;5112477;27;20028;-68
2023/09/02 02:56:16;;;;;;;3.88;2.78;;;19.20;84.40;;;;;;5109190;28;20057;-68
2023/09/02 02:58:42;;;;;;;7.45;4.10;;;19.20;84.30;;;;;;5105432;27;20120;-68
2023/09/02 03:01:11;;;;;;;6.57;3.17;;;19.20;84.40;;;;;;5107621;28;20070;-70
2023/09/02 03:03:36;;;;;;;6.25;3.75;;;19.20;84.40;;;;;;5107821;28;20193;-67
2023/09/02 03:06:03;;;;;;;5.38;4.18;;;19.20;84.50;;;;;;5114687;27;20103;-68
2023/09/02 03:08:30;;;;;;;4.65;2.97;;;19.20;84.50;;;;;;5101070;28;20038;-68
2023/09/02 03:10:57;;;;;;;6.25;3.65;;;19.20;84.40;;;;;;5104250;28;20031;-68
2023/09/02 03:13:24;;;;;;;7.22;3.67;;;19.20;84.30;;;;;;5109506;28;20036;-68
2023/09/02 03:15:51;;;;;;;5.45;3.40;;;19.20;84.40;;;;;;5106765;28;20057;-68
2023/09/02 03:18:16;;;;;;;5.35;3.50;;;19.20;84.40;;;;;;5097121;28;20101;-68
2023/09/02 03:20:42;;;;;;;5.68;3.75;;;19.20;84.40;;;;;;5103011;28;20020;-68
2023/09/02 03:23:08;;;;;;;5.70;3.75;;;19.20;84.40;;;;;;5108129;28;20114;-69
2023/09/02 03:25:34;;;;;;;5.97;3.17;;;19.20;84.50;;;;;;5112238;27;20024;-69
2023/09/02 03:28:01;;;;;;;8.90;4.30;;;19.20;84.50;;;;;;5105745;27;20020;-70
2023/09/02 03:30:26;;;;;;;7.30;3.92;;;19.30;84.50;;;;;;5089694;28;20074;-68
2023/09/02 03:32:54;;;;;;;5.75;4.00;;;19.20;84.50;;;;;;5108991;27;20027;-68
2023/09/02 03:35:19;;;;;;;7.38;3.95;;;19.20;84.60;;;;;;5104486;27;20463;-68
2023/09/02 03:37:45;;;;;;;5.32;3.92;;;19.20;84.60;;;;;;5107324;28;20484;-68
2023/09/02 03:40:11;;;;;;;8.27;3.97;;;19.20;84.60;;;;;;5101222;28;20510;-68
2023/09/02 03:42:37;;;;;;;5.97;3.42;;;19.20;84.60;;;;;;5108112;28;20054;-70
2023/09/02 03:45:03;;;;;;;8.60;4.00;;;19.20;84.70;;;;;;5110346;27;20436;-70
2023/09/02 03:47:32;;;;;;;8.10;4.55;;;19.20;84.70;;;;;;5106895;27;20031;-69
2023/09/02 03:49:58;;;;;;;7.30;4.53;;;19.20;84.70;;;;;;5106082;28;20042;-69
2023/09/02 03:52:24;;;;;;;9.55;4.85;;;19.20;84.80;;;;;;5105812;28;20031;-69
2023/09/02 03:54:50;;;;;;;8.13;4.13;;;19.20;84.90;;;;;;5110100;28;20038;-69
2023/09/02 03:57:16;;;;;;;10.68;4.30;;;19.20;84.90;;;;;;5087945;28;20023;-68
2023/09/02 03:59:42;;;;;;;9.18;4.35;;;19.20;84.90;;;;;;5107253;28;20023;-68
2023/09/02 04:02:09;;;;;;;8.48;4.15;;;19.30;84.90;;;;;;5102890;28;20048;-68
2023/09/02 04:04:34;;;;;;;6.97;4.45;;;19.20;84.90;;;;;;5109985;27;20059;-69
2023/09/02 04:07:00;;;;;;;7.75;4.57;;;19.20;85.00;;;;;;5106688;28;20583;-69
2023/09/02 04:09:27;;;;;;;6.70;3.78;;;19.20;85.00;;;;;;5108630;27;20026;-69
2023/09/02 04:11:53;;;;;;;9.77;4.22;;;19.20;85.10;;;;;;5108987;27;20063;-69
2023/09/02 04:14:18;;;;;;;7.95;4.50;;;19.20;85.00;;;;;;5107788;28;20102;-69
2023/09/02 04:16:44;;;;;;;5.32;3.70;;;19.20;85.00;;;;;;5103559;28;20020;-68
2023/09/02 04:19:11;;;;;;;7.40;3.80;;;19.20;85.00;;;;;;5106875;28;20027;-68
2023/09/02 04:21:37;;;;;;;6.82;4.15;;;19.20;85.00;;;;;;5084198;28;20043;-68
2023/09/02 04:24:03;;;;;;;6.05;3.95;;;19.30;85.10;;;;;;5104424;28;20024;-69
2023/09/02 04:26:28;;;;;;;10.13;4.13;;;19.30;85.00;;;;;;5114149;28;20023;-69
2023/09/02 04:28:55;;;;;;;6.38;3.60;;;19.30;85.10;;;;;;5110172;28;20445;-69
2023/09/02 04:31:21;;;;;;;8.05;4.63;;;19.20;85.00;;;;;;5110709;28;20104;-69
2023/09/02 04:33:47;;;;;;;8.70;4.75;;;19.30;85.10;;;;;;5107818;27;20073;-68
2023/09/02 04:36:13;;;;;;;7.47;4.13;;;19.30;85.10;;;;;;5090955;28;20112;-69
2023/09/02 04:38:39;;;;;;;9.25;4.20;;;19.20;85.10;;;;;;5105131;28;20169;-70
2023/09/02 04:41:06;;;;;;;9.48;4.22;;;19.20;85.20;;;;;;5106776;28;20032;-69
2023/09/02 04:43:32;;;;;;;8.48;5.30;;;19.20;85.30;;;;;;5109912;27;20035;-69
2023/09/02 04:46:01;;;;;;;8.70;4.65;;;19.20;85.30;;;;;;5108063;28;20026;-69
2023/09/02 04:48:27;;;;;;;8.57;5.43;;;19.20;85.30;;;;;;5105018;28;20023;-68
2023/09/02 04:50:53;;;;;;;8.13;4.57;;;19.20;85.30;;;;;;5107985;28;20785;-68
2023/09/02 04:53:19;;;;;;;11.10;6.25;;;19.20;85.30;;;;;;5104634;28;20047;-69
2023/09/02 04:55:46;;;;;;;9.10;5.00;;;19.20;85.40;;;;;;5111620;28;20525;-69
2023/09/02 04:58:12;;;;;;;11.57;4.65;;;19.20;85.40;;;;;;5090750;28;20038;-68
2023/09/02 05:00:38;;;;;;;6.40;4.40;;;19.30;86.10;;;;;;5109094;28;20234;-68
2023/09/02 05:03:05;;;;;;;7.20;4.28;;;19.30;85.50;;;;;;5111942;28;20459;-69
2023/09/02 05:05:31;;;;;;;9.15;4.88;;;19.30;85.50;;;;;;5109201;28;20036;-69
2023/09/02 05:07:58;;;;;;;9.18;4.53;;;19.30;85.40;;;;;;5113030;28;20497;-69
2023/09/02 05:10:24;;;;;;;10.85;5.60;;;19.30;85.40;;;;;;5109346;28;20034;-69
2023/09/02 05:12:50;;;;;;;13.68;4.90;;;19.30;85.50;;;;;;5110156;27;20036;-69
2023/09/02 05:15:16;;;;;;;8.93;4.57;;;19.30;85.50;;;;;;5106962;28;20028;-69
2023/09/02 05:17:42;;;;;;;8.13;4.30;;;19.30;85.60;;;;;;5108049;28;20126;-69
2023/09/02 05:20:09;;;;;;;9.57;5.22;;;19.30;85.50;;;;;;5112080;27;20032;-69
2023/09/02 05:22:36;;;;;;;7.75;4.30;;;19.40;85.60;;;;;;5109357;28;20393;-68
2023/09/02 05:25:02;;;;;;;11.32;4.35;;;19.40;85.60;;;;;;5112073;28;20036;-69
2023/09/02 05:27:29;;;;;;;6.28;4.13;;;19.40;85.60;;;;;;5109073;27;20057;-69
2023/09/02 05:29:54;;;;;;;9.63;4.93;;;19.40;85.60;;;;;;5110039;28;20174;-68
2023/09/02 05:32:21;;;;;;;6.93;4.07;;;19.40;85.50;;;;;;5106271;28;20122;-69
2023/09/02 05:34:47;;;;;;;8.70;4.40;;;19.40;85.50;;;;;;5108282;28;20040;-70
2023/09/02 05:37:12;;;;;;;8.68;3.92;;;19.40;85.50;;;;;;5105902;27;20076;-70
2023/09/02 05:39:38;;;;;;;7.85;3.63;;;19.40;85.50;;;;;;5106951;28;20100;-71
2023/09/02 05:42:04;;;;;;;10.85;4.60;;;19.40;85.50;;;;;;5100724;27;20039;-70
2023/09/02 05:44:34;;;;;;;5.43;3.70;;;19.40;85.50;;;;;;5107730;27;20040;-69
2023/09/02 05:47:00;;;;;;;7.53;4.18;;;19.40;85.50;;;;;;5106806;28;20023;-69
2023/09/02 05:49:25;;;;;;;7.05;3.70;;;19.40;85.60;;;;;;5104510;28;20103;-70
2023/09/02 05:51:51;;;;;;;8.70;4.60;;;19.40;85.50;;;;;;5109746;28;20535;-69
2023/09/02 05:54:17;;;;;;;7.80;4.28;;;19.40;85.60;;;;;;5086938;28;20024;-68
2023/09/02 05:56:43;;;;;;;5.30;3.90;;;19.50;85.60;;;;;;5113714;27;20023;-68
2023/09/02 05:59:08;;;;;;;7.75;4.57;;;19.40;85.60;;;;;;5103508;28;20162;-68
2023/09/02 06:01:34;;;;;;;5.10;2.80;;;19.50;85.60;;;;;;5114339;27;20476;-69
2023/09/02 06:04:00;;;;;;;5.47;3.60;;;19.50;85.50;;;;;;5107287;27;20048;-68
2023/09/02 06:06:25;;;;;;;6.88;3.47;;;19.50;85.50;;;;;;5109679;28;20028;-68
2023/09/02 06:08:53;;;;;;;6.68;4.00;;;19.50;85.50;;;;;;5104727;28;20082;-68
2023/09/02 06:11:19;;;;;;;6.93;3.55;;;19.50;85.50;;;;;;5106041;28;20031;-69
2023/09/02 06:13:45;;;;;;;7.53;3.35;;;19.50;85.60;;;;;;5110020;27;20395;-68
2023/09/02 06:16:10;;;;;;;7.18;4.03;;;19.50;85.60;;;;;;5107241;28;20038;-69
2023/09/02 06:18:36;;;;;;;3.95;2.53;;;19.50;85.60;;;;;;5102523;27;20157;-68
2023/09/02 06:21:10;;;;;;;4.57;2.90;;;19.50;85.60;;;;;;5106792;28;20076;-68
2023/09/02 06:23:35;;;;;;;5.60;3.60;;;19.50;86.20;;;;;;5106352;27;20035;-69
2023/09/02 06:26:01;;;;;;;4.68;3.33;;;19.50;85.60;;;;;;5108418;27;20474;-69
2023/09/02 06:28:28;;;;;;;5.07;3.05;;;19.50;85.60;;;;;;5104625;27;20038;-70
2023/09/02 06:30:54;;;;;;;7.70;3.53;;;19.50;85.70;;;;;;5104242;28;20032;-68
2023/09/02 06:33:23;;;;;;;4.55;3.17;;;19.50;85.70;;;;;;5108632;28;20024;-68
2023/09/02 06:35:49;;;;;;;7.20;3.30;;;19.50;85.70;;;;;;5106049;28;20064;-69
2023/09/02 06:38:16;;;;;;;4.70;3.25;;;19.60;85.70;;;;;;5101516;28;20490;-69
2023/09/02 06:40:41;;;;;;;5.70;3.15;;;19.60;85.70;;;;;;5107972;27;20028;-68
2023/09/02 06:43:07;;;;;;;5.03;2.75;;;19.50;85.70;;;;;;5110822;28;20035;-71
2023/09/02 06:45:33;;;;;;;5.50;3.05;;;19.60;85.80;;;;;;5112313;27;20027;-68
2023/09/02 06:47:58;;;;;;;4.05;2.83;;;19.60;85.70;;;;;;5111409;27;20030;-72
2023/09/02 06:50:25;;;;;;;4.55;2.60;;;19.60;85.60;;;;;;5109346;28;20027;-70
2023/09/02 06:52:51;;;;;;;4.28;3.38;;;19.60;85.60;;;;;;5110107;27;20031;-71
2023/09/02 06:55:17;;;;;;;6.40;3.25;;;19.60;85.70;;;;;;5104048;28;20127;-72
2023/09/02 06:57:43;;;;;;;3.75;2.80;;;19.60;85.80;;;;;;5107082;28;20036;-71
2023/09/02 07:00:12;;;;;;;5.55;2.45;;;19.50;85.80;;;;;;5102179;28;20043;-70
2023/09/02 07:02:38;;;;;;;6.53;3.80;;;19.60;85.80;;;;;;5104268;28;20478;-67
2023/09/02 07:05:04;;;;;;;5.53;2.67;;;19.60;85.80;;;;;;5110734;27;20023;-69
2023/09/02 07:07:29;;;;;;;3.95;2.45;;;19.60;85.80;;;;;;5110306;27;20049;-68
2023/09/02 07:09:55;;;;;;;4.45;3.42;;;19.60;85.80;;;;;;5106929;28;20077;-68
2023/09/02 07:12:21;;;;;;;4.15;3.17;;;19.60;85.80;;;;;;5109116;27;20094;-68
2023/09/02 07:14:47;;;;;;;3.65;2.58;;;19.60;86.40;;;;;;5099311;27;20119;-70
2023/09/02 07:17:13;;;;;;;4.53;2.55;;;19.60;85.80;;;;;;5099842;28;20051;-69
2023/09/02 07:19:38;;;;;;;3.45;2.17;;;19.70;86.40;;;;;;5102941;27;20438;-68
2023/09/02 07:22:04;;;;;;;7.88;3.88;;;19.70;85.70;;;;;;5115103;27;20030;-68
2023/09/02 07:24:30;;;;;;;5.82;3.72;;;19.80;85.60;;;;;;5109446;28;20030;-68
2023/09/02 07:26:56;;;;;;;5.25;2.90;;;19.70;86.10;;;;;;5101949;28;20028;-70
2023/09/02 07:29:21;;;;;;;5.57;2.83;;;19.70;85.60;;;;;;5098451;28;20608;-69
2023/09/02 07:31:47;;;;;;;4.03;2.53;;;19.80;85.70;;;;;;5099955;27;20034;-69
2023/09/02 07:34:13;;;;;;;3.15;2.50;;;19.80;85.70;;;;;;5099947;27;20028;-69
2023/09/02 07:36:39;;;;;;;5.15;2.75;;;19.90;85.70;;;;;;5105151;27;20055;-70
2023/09/02 07:39:05;;;;;;;5.10;3.08;;;19.90;85.60;;;;;;5101402;28;20055;-70
2023/09/02 07:41:31;;;;;;;3.85;2.97;;;19.90;85.60;;;;;;5104935;27;20092;-70
2023/09/02 07:43:56;;;;;;;4.70;3.03;;;19.90;85.60;;;;;;5108563;27;20034;-69
2023/09/02 07:46:22;;;;;;;5.10;2.53;;;19.90;85.50;;;;;;5112557;27;20031;-69
2023/09/02 07:48:49;;;;;;;4.25;2.67;;;20.00;85.50;;;;;;5102894;28;20038;-69
2023/09/02 07:51:16;;;;;;;5.00;2.55;;;20.10;85.40;;;;;;5111134;27;20023;-68
2023/09/02 07:53:42;;;;;;;4.75;2.65;;;20.10;85.30;;;;;;5102872;28;20447;-69
2023/09/02 07:56:07;;;;;;;3.17;2.40;;;20.30;85.20;;;;;;5101970;27;20114;-69
2023/09/02 07:58:33;;;;;;;3.58;2.95;;;20.30;84.90;;;;;;5101987;27;20088;-70
2023/09/02 08:00:59;;;;;;;5.40;2.58;;;20.40;84.80;;;;;;5107635;28;20216;-70
2023/09/02 08:03:25;;;;;;;3.60;2.63;;;20.30;84.80;;;;;;5100391;28;20107;-70
2023/09/02 08:05:50;;;;;;;4.20;2.65;;;20.40;84.80;;;;;;5106505;27;20098;-70
2023/09/02 08:08:16;;;;;;;4.43;2.67;;;20.40;84.80;;;;;;5099228;27;20038;-70
2023/09/02 08:10:42;;;;;;;4.55;2.45;;;20.40;84.80;;;;;;5107435;28;20058;-70
2023/09/02 08:13:09;;;;;;;4.65;2.05;;;20.40;84.80;;;;;;5100351;28;20024;-69
2023/09/02 08:15:40;;;;;;;4.30;2.80;;;20.40;84.80;;;;;;5108050;28;20065;-70
2023/09/02 08:18:06;;;;;;;3.55;2.15;;;20.40;84.80;;;;;;5103461;28;20031;-70
2023/09/02 08:20:32;;;;;;;5.32;3.28;;;20.40;84.80;;;;;;5105297;28;20042;-70
2023/09/02 08:22:58;;;;;;;6.68;3.53;;;20.40;84.70;;;;;;5106146;27;20089;-70
2023/09/02 08:25:24;;;;;;;5.10;2.55;;;20.40;84.80;;;;;;5102579;28;20467;-70
2023/09/02 08:27:49;;;;;;;4.38;2.70;;;20.40;84.70;;;;;;5101305;28;20024;-70
2023/09/02 08:30:15;;;;;;;4.97;2.80;;;20.40;84.80;;;;;;5110008;28;20294;-70
2023/09/02 08:32:42;;;;;;;7.00;2.70;;;20.30;84.70;;;;;;5108400;28;20043;-71
2023/09/02 08:35:08;;;;;;;3.85;2.15;;;20.40;84.90;;;;;;5112498;28;20103;-71
2023/09/02 08:37:34;;;;;;;4.75;2.83;;;20.40;84.90;;;;;;5114949;27;20486;-70
2023/09/02 08:40:01;;;;;;;4.25;2.30;;;20.40;84.80;;;;;;5115220;27;20038;-70
2023/09/02 08:42:28;;;;;;;2.83;2.25;;;20.50;84.70;;;;;;5111005;28;20027;-70
2023/09/02 08:44:56;;;;;;;5.07;2.53;;;20.60;84.50;;;;;;5112961;27;20035;-69
2023/09/02 08:47:24;;;;;;;5.47;2.60;;;20.60;84.40;;;;;;5102233;27;20042;-71
2023/09/02 08:49:51;;;;;;;3.60;1.90;;;20.70;84.30;;;;;;5110170;27;20034;-70
2023/09/02 08:52:17;;;;;;;3.75;2.05;;;20.80;84.20;;;;;;5107642;27;20608;-70
2023/09/02 08:54:44;;;;;;;4.00;1.83;;;20.80;84.10;;;;;;5109448;27;20472;-71
2023/09/02 08:57:16;;;;;;;3.83;2.45;;;21.00;84.10;;;;;;5100464;28;20040;-71
2023/09/02 08:59:41;;;;;;;2.40;2.10;;;21.10;83.90;;;;;;5107481;28;20062;-71
2023/09/02 09:02:12;;;;;;;4.55;1.63;;;21.20;83.50;;;;;;5109550;28;20048;-71
2023/09/02 09:04:38;;;;;;;3.78;2.35;;;21.30;83.30;;;;;;5109958;27;20057;-70
2023/09/02 09:07:05;;;;;;;3.65;2.70;;;21.40;83.30;;;;;;5106325;28;20035;-70
2023/09/02 09:09:39;;;;;;;4.50;2.58;;;21.60;83.10;;;;;;5105325;27;20059;-69
2023/09/02 09:12:06;;;;;;;3.88;2.03;;;21.60;82.90;;;;;;5108225;27;20027;-70
2023/09/02 09:14:36;;;;;;;3.75;2.38;;;21.70;82.90;;;;;;5106518;27;20024;-71
2023/09/02 09:17:03;;;;;;;6.05;2.80;;;21.70;82.80;;;;;;5110102;28;20038;-72
2023/09/02 09:19:30;;;;;;;3.88;2.95;;;21.70;82.80;;;;;;5114925;27;20055;-71
2023/09/02 09:21:56;;;;;;;5.00;2.22;;;21.80;82.80;;;;;;5107097;27;20054;-71
2023/09/02 09:24:22;;;;;;;4.63;3.08;;;21.80;82.60;;;;;;5111693;27;20118;-69
2023/09/02 09:26:49;;;;;;;5.80;2.80;;;21.80;82.50;;;;;;5115486;27;20355;-71
2023/09/02 09:29:16;;;;;;;3.40;2.08;;;21.70;82.60;;;;;;5109139;28;20042;-67
2023/09/02 09:31:43;;;;;;;3.22;2.15;;;21.70;82.60;;;;;;5113685;27;20040;-69
2023/09/02 09:34:09;;;;;;;4.57;2.42;;;21.80;82.70;;;;;;5109847;27;20035;-68
2023/09/02 09:36:35;;;;;;;4.10;2.47;;;21.80;82.60;;;;;;5114752;27;20031;-72
2023/09/02 09:39:02;;;;;;;2.75;1.88;;;21.80;82.50;;;;;;5114942;27;20423;-71
2023/09/02 09:41:29;;;;;;;3.92;2.97;;;21.80;82.50;;;;;;5109923;28;20032;-72
2023/09/02 09:44:10;;;;;;;4.60;3.00;;;21.90;82.50;;;;;;5105288;27;20428;-72
2023/09/02 09:46:46;;;;;;;4.57;2.35;;;21.90;82.50;;;;;;5107722;27;20066;-72
2023/09/02 09:49:25;;;;;;;4.38;1.92;;;21.80;82.50;;;;;;5106046;28;20070;-72
2023/09/02 09:52:05;;;;;;;3.75;2.22;;;21.80;82.50;;;;;;5113315;27;20292;-71
2023/09/02 09:54:42;;;;;;;4.28;2.13;;;21.80;82.50;;;;;;5107862;27;20122;-73
2023/09/02 09:57:09;;;;;;;4.90;2.85;;;21.90;82.40;;;;;;5112547;27;20046;-67
2023/09/02 09:59:36;;;;;;;5.50;2.95;;;21.80;82.20;;;;;;5104521;28;20115;-67
2023/09/02 10:02:04;;;;;;;5.63;2.80;;;21.80;82.30;;;;;;5110836;27;20394;-68
2023/09/02 10:04:30;;;;;;;3.47;2.70;;;21.80;82.20;;;;;;5109200;28;20019;-67
2023/09/02 10:07:03;;;;;;;3.35;2.22;;;21.80;82.20;;;;;;5111066;28;20020;-68
2023/09/02 10:09:42;;;;;;;4.45;2.33;;;21.80;82.10;;;;;;5108644;28;20355;-68
2023/09/02 10:12:18;;;;;;;4.45;2.33;;;21.80;82.20;;;;;;5124746;27;20483;-70
2023/09/02 10:14:48;;;;;;;4.80;2.63;;;21.80;82.10;;;;;;5112122;27;20047;-68
2023/09/02 10:17:15;;;;;;;3.20;2.17;;;21.80;82.30;;;;;;5102576;28;20038;-71
2023/09/02 10:19:43;;;;;;;3.15;2.13;;;21.90;82.30;;;;;;5108146;27;20028;-69
2023/09/02 10:22:09;;;;;;;3.90;2.45;;;22.00;82.10;;;;;;5103314;28;20035;-70
2023/09/02 10:24:41;;;;;;;4.45;2.97;;;22.10;81.90;;;;;;5107036;27;20028;-70
2023/09/02 10:27:08;;;;;;;;;;;22.10;81.50;;;;;;5106829;27;20034;-70
2023/09/02 10:29:41;;;;;;;3.28;2.05;;;22.20;81.70;;;;;;5109440;27;19978;-69
2023/09/02 10:32:12;;;;;;;4.22;2.22;;;22.20;81.70;;;;;;5107544;27;20050;-70
2023/09/02 10:35:17;;;;;;;4.20;2.35;;;22.20;81.60;;;;;;5108196;28;20034;-69
2023/09/02 10:37:52;;;;;;;4.30;2.55;;;22.30;81.30;;;;;;5101440;28;20036;-70
2023/09/02 10:40:27;;;;;;;4.93;3.22;;;22.30;81.20;;;;;;5105506;27;20057;-70
2023/09/02 10:42:55;;;;;;;4.40;2.90;;;22.30;81.20;;;;;;5115880;27;20130;-70
2023/09/02 10:45:22;;;;;;;3.67;2.55;;;22.30;80.60;;;;;;5113263;27;20386;-70
2023/09/02 10:47:49;;;;;;;5.68;3.75;;;22.30;80.70;;;;;;5113474;27;20092;-70
2023/09/02 10:50:23;;;;;;;3.00;2.10;;;22.40;80.40;;;;;;5108099;27;20051;-70
2023/09/02 10:52:53;;;;;;;5.82;2.15;;;22.40;80.40;;;;;;5105317;28;20032;-70
2023/09/02 10:55:21;;;;;;;3.30;2.38;;;22.50;80.50;;;;;;5103507;27;20047;-70
2023/09/02 10:57:51;;;;;;;3.00;1.88;;;22.70;80.40;;;;;;5104809;28;20110;-70
2023/09/02 11:00:24;;;;;;;4.85;2.17;;;22.90;80.10;;;;;;5106191;28;20031;-70
2023/09/02 11:02:52;;;;;;;5.53;2.85;;;23.00;79.70;;;;;;5104467;28;20039;-69
2023/09/02 11:05:19;;;;;;;3.08;2.58;;;23.00;79.40;;;;;;5096322;28;20069;-70
2023/09/02 11:07:46;;;;;;;3.53;2.08;;;22.90;79.50;;;;;;5101740;27;20027;-70
2023/09/02 11:10:12;;;;;;;1.90;1.45;;;22.90;79.60;;;;;;5101442;28;20130;-70
2023/09/02 11:12:59;;;;;;;3.88;1.90;;;23.00;79.60;;;;;;5099720;28;20040;-70
2023/09/02 11:15:28;;;;;;;3.35;1.92;;;23.10;79.40;;;;;;5103506;28;20070;-70
2023/09/02 11:17:54;;;;;;;3.08;1.90;;;23.20;79.10;;;;;;5098235;27;20424;-71
2023/09/02 11:20:25;;;;;;;2.50;2.15;;;23.30;78.30;;;;;;5101452;27;20047;-71
2023/09/02 11:22:56;;;;;;;3.00;2.33;;;23.30;77.30;;;;;;5102349;28;20372;-70
2023/09/02 11:25:39;;;;;;;3.60;2.20;;;23.30;77.40;;;;;;5104695;28;20466;-71
2023/09/02 11:28:17;;;;;;;2.42;2.08;;;23.20;77.50;;;;;;5083478;28;20277;-71
2023/09/02 11:31:01;;;;;;;3.67;2.13;;;23.10;77.70;;;;;;5102378;28;20020;-71
2023/09/02 11:33:27;;;;;;;2.95;1.67;;;23.00;78.10;;;;;;5095234;27;20066;-70
2023/09/02 11:35:53;;;;;;;2.47;1.42;;;23.00;78.40;;;;;;5102543;27;20448;-71
2023/09/02 11:38:19;;;;;;;2.78;1.75;;;22.90;78.50;;;;;;5105295;28;20042;-71
2023/09/02 11:40:46;;;;;;;2.47;1.98;;;23.00;78.60;;;;;;5106159;28;20394;-71
2023/09/02 11:43:18;;;;;;;2.45;1.45;;;23.10;78.50;;;;;;5105271;28;20077;-71
2023/09/02 11:45:45;;;;;;;2.22;1.73;;;23.40;78.10;;;;;;5102501;28;20020;-71
2023/09/02 11:48:11;;;;;;;5.90;2.40;;;23.60;77.40;;;;;;5100487;28;20031;-70
2023/09/02 11:50:38;;;;;;;2.38;1.50;;;23.70;77.10;;;;;;5107227;28;20039;-68
2023/09/02 11:53:05;;;;;;;3.25;1.63;;;23.70;77.10;;;;;;5102698;27;20111;-71
2023/09/02 11:55:31;;;;;;;3.53;2.22;;;23.90;77.00;;;;;;5102872;27;20023;-72
2023/09/02 11:57:56;;;;;;;3.55;2.65;;;24.10;76.70;;;;;;5096562;28;20084;-72
2023/09/02 12:00:23;;;;;;;2.60;1.95;;;24.30;76.40;;;;;;5097333;27;20063;-72
2023/09/02 12:02:53;;;;;;;2.17;1.55;;;24.60;75.90;;;;;;5105007;28;20489;-72
2023/09/02 12:05:19;;;;;;;3.25;1.80;;;24.60;75.60;;;;;;5104228;27;20026;-70
2023/09/02 12:07:46;;;;;;;5.28;2.42;;;24.50;75.00;;;;;;5084714;28;20124;-73
2023/09/02 12:10:16;;;;;;;2.85;2.10;;;24.30;75.30;;;;;;5103206;28;20046;-73
2023/09/02 12:12:44;;;;;;;2.97;1.92;;;24.20;75.20;;;;;;5105505;28;20150;-72
2023/09/02 12:15:16;;;;;;;2.55;1.50;;;24.10;75.40;;;;;;5105137;28;20035;-72
2023/09/02 12:17:43;;;;;;;2.10;1.67;;;24.00;75.70;;;;;;5106590;28;20521;-73
2023/09/02 12:20:11;;;;;;;2.67;2.05;;;23.90;75.80;;;;;;5102362;28;20046;-70
2023/09/02 12:22:37;;;;;;;3.05;2.08;;;23.70;76.00;;;;;;5104642;28;20047;-70
2023/09/02 12:25:23;;;;;;;2.53;2.22;;;23.70;75.70;;;;;;5099772;28;20516;-69
2023/09/02 12:27:50;;;;;;;3.08;1.67;;;23.70;75.90;;;;;;5098929;28;20031;-71
2023/09/02 12:30:27;;;;;;;3.45;2.47;;;23.70;76.20;;;;;;5102548;28;20032;-72
2023/09/02 12:32:56;;;;;;;3.17;1.55;;;23.70;76.20;;;;;;5096172;28;20044;-72
2023/09/02 12:35:21;;;;;;;3.03;1.73;;;23.70;76.40;;;;;;5101509;28;20042;-69
2023/09/02 12:38:06;;;;;;;3.75;2.72;;;23.70;76.40;;;;;;5097172;28;20036;-69
2023/09/02 12:40:33;;;;;;;4.22;2.33;;;23.80;76.50;;;;;;5102946;28;20088;-69
2023/09/02 12:43:00;;;;;;;3.30;2.47;;;23.80;75.70;;;;;;5100576;28;20101;-69
2023/09/02 12:45:36;;;;;;;3.15;2.33;;;23.70;76.00;;;;;;5102570;28;20035;-72
2023/09/02 12:48:02;;;;;;;5.53;2.72;;;23.70;76.10;;;;;;5101306;28;20559;-72
2023/09/02 12:50:31;;;;;;;3.47;2.70;;;23.80;76.20;;;;;;5104253;28;20100;-68